• Join FlightAware (Why Join?)
  • Login
  • US Flag 
05:02AM EST


 

Airport Tracker/Info


-or-


 

Live Flight TrackerFlight Track Log ✈ SWA407 ✈ 29-Aug-2013 ✈ KPIT - KMDW

Flight Track Log - Related Links

Times and Time Zones

All times are in EDT time to prevent confusion due to time zone crossing. See the SWA407 flight status page for this flight to view local times or setup timezone preferences in your user account.

Time Position Orientation Groundspeed Altitude Reporting Facility
EDT Latitude Longitude Course Direction KTS MPH feet Rate Location/Type
09:14AM 40.5458 -80.1597 286° West 240 276 6,100  Level Cleveland Center
09:15AM 40.5586 -80.2633 279° West 246 283 9,600 2,700 Climbing Cleveland Center
09:16AM 40.5819 -80.3753 285° West 259 298 11,600 2,220 Climbing Cleveland Center
09:17AM 40.5986 -80.5147 279° West 300 345 14,100 2,820 Climbing Cleveland Center
09:18AM 40.6333 -80.9346 270° West  Level FlightAware Approximate
09:18AM 40.6217 -80.6597 282° West 376 433 17,300  Level Cleveland Center
09:19AM 40.6513 -81.0559 286° West  Level FlightAware Approximate
09:19AM 40.6486 -80.8019 284° West 388 447 19,900  Level Cleveland Center
09:20AM 40.6689 -80.9500 280° West 408 470 22,500 1,500 Climbing Cleveland Center
09:21AM 40.6914 -81.1061 281° West 434 499 23,000 960 Climbing Cleveland Center
09:22AM 40.7156 -81.2625 282° West 434 499 24,500 1,800 Climbing Cleveland Center
09:23AM 40.7478 -81.4356 284° West 434 499 26,600 2,160 Climbing Cleveland Center
09:24AM 40.7778 -81.5922 284° West 434 499 28,900 2,280 Climbing Cleveland Center
09:25AM 40.8053 -81.7461 283° West 434 499 31,200 1,500 Climbing Cleveland Center
09:26AM 40.8350 -81.8975 285° West 434 499 32,000 360 Climbing Cleveland Center
09:27AM 40.8644 -82.0492 284° West 434 499 32,000  Level Cleveland Center
09:28AM 40.8894 -82.2008 282° West 434 499 32,000  Level Cleveland Center
09:29AM 40.9167 -82.3333 285° West 428 493 32,000  Level Cleveland Center
09:30AM 40.9414 -82.4853 282° West 428 493 32,000  Level Cleveland Center
09:31AM 40.9700 -82.6375 284° West 428 493 32,000  Level Cleveland Center
09:32AM 40.9964 -82.7867 283° West 426 490 32,000  Level Cleveland Center
09:33AM 41.0247 -82.9419 284° West 426 490 32,000  Level Cleveland Center
09:34AM 41.0522 -83.1081 282° West 426 490 32,000  Level Cleveland Center
09:35AM 41.0800 -83.2608 284° West 432 497 32,000  Level Cleveland Center
09:36AM 41.1056 -83.4161 282° West 432 497 32,000  Level Cleveland Center
09:37AM 41.1308 -83.5717 282° West 432 497 32,000  Level Cleveland Center
09:38AM 41.1581 -83.7244 283° West 432 497 32,000  Level Cleveland Center
09:39AM 41.1794 -83.8497 283° West 432 497 32,000  Level Cleveland Center
09:40AM 41.2139 -84.0308 284° West 427 491 32,000  Level Cleveland Center
09:41AM 41.2383 -84.1803 282° West 431 496 32,000 -480 Level Chicago Center
09:42AM 41.2625 -84.3358 282° West 431 496 31,100 -960 Descending Chicago Center
09:43AM 41.2881 -84.4942 282° West 439 505 30,100 -540 Descending Chicago Center
09:44AM 41.3150 -84.6550 283° West 445 512 30,000 -180 Descending Chicago Center
09:45AM 41.3447 -84.8458 282° West 441 507 29,800 -600 Descending Chicago Center
09:46AM 41.3697 -85.0069 282° West 443 510 28,800 -1,020 Descending Chicago Center
09:47AM 41.3950 -85.1706 282° West 448 516 27,800 -1,260 Descending Chicago Center
09:48AM 41.4197 -85.3364 281° West 451 519 26,300 -1,860 Descending Chicago Center
09:49AM 41.4453 -85.4997 282° West 446 513 24,000 -1,620 Descending Chicago Center
09:50AM 41.4689 -85.6578 281° West 431 496 23,000 -1,380 Descending Chicago Center
09:51AM 41.4925 -85.8111 282° West 421 484 21,200 -2,100 Descending Chicago Center
09:52AM 41.5144 -85.9594 281° West 409 471 18,700 -2,460 Descending Chicago Center
09:53AM 41.5239 -86.1042 275° West 390 449 16,200 -2,760 Descending Chicago Center
09:54AM 41.5236 -86.2747 270° West 382 440 13,100 -2,520 Descending Chicago Center
09:55AM 41.5222 -86.4108 269° West 371 427 11,000 -1,500 Descending Chicago Center
09:56AM 41.5214 -86.5436 270° West 360 414 10,000 -480 Descending Chicago Center
09:57AM 41.5206 -86.6642 270° West 328 377 10,100  Climbing Chicago Center
09:58AM 41.5200 -86.7925 270° West 321 369 10,000 -780 Descending Chicago Center
09:59AM 41.5178 -86.9003 268° West 296 341 8,600 -1,380 Descending Chicago Center
10:00AM 41.5169 -87.0081 269° West 290 334 7,200 -1,320 Descending Chicago Center
10:01AM 41.5189 -87.1131 271° West 286 329 5,900 -780 Descending Chicago Center
10:02AM 41.5303 -87.2306 277° West 285 328 5,600 -960 Descending Chicago Center
10:03AM 41.5528 -87.3369 286° West 282 325 4,000 -840 Descending Chicago Center
10:04AM 41.5711 -87.4367 284° West 279 321 3,900 -60 Descending Chicago Center
10:05AM 41.6142 -87.5111 308° West 261 300 3,900  Level Chicago Center
10:06AM 41.6561 -87.5719 313° West 232 267 3,900 -600 Level Chicago Center
10:08AM 41.7039 -87.6386 314° West 216 249 2,700 -1,080 Descending Chicago Center
10:09AM 41.7397 -87.6892 314° West 204 235 1,700 -840 Descending Chicago Center
10:10AM 41.7664 -87.7258 314° West 168 193 1,000 -720 Descending Chicago Center
10:12AM 41.7833 -87.7500 334° Northwest  Level FlightAware Approximate